createdAt,value
2022-11-15T00:00:09.910Z,4.91
2022-11-15T00:03:15.003Z,4.93
2022-11-15T00:06:18.556Z,4.81
2022-11-15T00:09:20.777Z,5.05
2022-11-15T00:12:22.906Z,5.28
2022-11-15T00:15:25.228Z,5.33
2022-11-15T00:18:27.913Z,5.40
2022-11-15T00:21:31.399Z,5.52
2022-11-15T00:24:33.961Z,5.67
2022-11-15T00:27:36.086Z,5.70
2022-11-15T00:30:38.155Z,5.72
2022-11-15T00:33:40.307Z,5.53
2022-11-15T00:36:43.761Z,5.38
2022-11-15T00:39:45.813Z,5.50
2022-11-15T00:42:47.868Z,5.57
2022-11-15T00:45:50.098Z,5.61
2022-11-15T00:48:52.076Z,5.68
2022-11-15T00:51:55.577Z,5.64
2022-11-15T00:54:57.550Z,5.51
2022-11-15T00:57:59.655Z,5.63
2022-11-15T01:01:09.643Z,5.71
2022-11-15T01:04:11.670Z,5.65
2022-11-15T01:07:15.025Z,5.37
2022-11-15T01:10:17.029Z,5.35
2022-11-15T01:13:18.875Z,5.12
2022-11-15T01:16:20.791Z,5.09
2022-11-15T01:19:23.061Z,5.10
2022-11-15T01:22:26.267Z,4.85
2022-11-15T01:25:28.142Z,4.75
2022-11-15T01:28:33.863Z,4.64
2022-11-15T01:31:35.738Z,4.77
2022-11-15T01:34:37.665Z,4.89
2022-11-15T01:37:40.901Z,4.95
2022-11-15T01:40:42.824Z,4.91
2022-11-15T01:43:44.828Z,5.05
2022-11-15T01:46:48.777Z,5.21
2022-11-15T01:49:56.280Z,5.33
2022-11-15T01:52:59.532Z,5.11
2022-11-15T01:56:05.224Z,4.82
2022-11-15T01:59:09.116Z,4.81
2022-11-15T02:02:11.055Z,4.84
2022-11-15T02:05:13.333Z,4.90
2022-11-15T02:08:16.828Z,4.92
2022-11-15T02:11:19.045Z,4.82
2022-11-15T02:14:21.362Z,4.66
2022-11-15T02:17:36.961Z,4.53
2022-11-15T02:21:08.652Z,4.59
2022-11-15T02:24:36.666Z,4.88
2022-11-15T02:28:17.241Z,5.10
2022-11-15T02:31:29.381Z,4.86
2022-11-15T02:34:37.782Z,4.54
2022-11-15T02:37:45.718Z,4.51
2022-11-15T02:40:54.775Z,4.37
2022-11-15T02:44:04.441Z,4.41
2022-11-15T02:47:12.514Z,4.58
2022-11-15T02:50:18.184Z,4.71
2022-11-15T02:53:25.163Z,4.84
2022-11-15T02:56:27.339Z,4.96
2022-11-15T02:59:53.187Z,5.06
2022-11-15T03:03:26.687Z,4.65
2022-11-15T03:06:36.172Z,4.65
2022-11-15T03:09:45.834Z,4.74
2022-11-15T03:12:57.001Z,4.74
2022-11-15T03:16:05.477Z,4.77
2022-11-15T03:19:14.385Z,4.93
2022-11-15T03:22:19.730Z,5.03
2022-11-15T03:25:25.239Z,4.91
2022-11-15T03:28:33.487Z,4.78
2022-11-15T03:31:39.854Z,4.91
2022-11-15T03:34:47.951Z,5.10
2022-11-15T03:37:55.863Z,5.15
2022-11-15T03:41:00.739Z,4.89
2022-11-15T03:44:11.044Z,4.70
2022-11-15T03:47:17.609Z,4.72
2022-11-15T03:50:23.247Z,4.43
2022-11-15T03:53:25.148Z,4.25
2022-11-15T03:56:27.068Z,4.19
2022-11-15T03:59:29.018Z,4.33
2022-11-15T04:02:30.986Z,4.30
2022-11-15T04:05:34.326Z,4.48
2022-11-15T04:08:36.262Z,4.59
2022-11-15T04:11:39.779Z,4.58
2022-11-15T04:15:00.387Z,4.72
2022-11-15T04:34:31.776Z,4.84
2022-11-15T04:37:50.129Z,4.82
2022-11-15T04:40:52.292Z,4.67
2022-11-15T04:43:56.967Z,4.81
2022-11-15T04:47:03.239Z,4.91
2022-11-15T04:50:32.710Z,4.87
2022-11-15T04:53:46.874Z,4.96
2022-11-15T04:56:51.925Z,4.89
2022-11-15T04:59:53.839Z,4.93
2022-11-15T05:02:58.741Z,4.96
2022-11-15T05:06:14.289Z,4.78
2022-11-15T05:09:19.718Z,4.75
2022-11-15T05:12:23.316Z,4.66
2022-11-15T05:15:45.695Z,4.63
2022-11-15T05:19:22.709Z,4.66
2022-11-15T05:22:29.446Z,4.65
2022-11-15T05:25:49.805Z,4.65
2022-11-15T05:30:17.993Z,4.42
2022-11-15T05:33:30.098Z,4.51
2022-11-15T05:37:09.778Z,4.65
2022-11-15T05:40:41.352Z,4.62
2022-11-15T05:43:45.376Z,4.35
2022-11-15T05:46:48.548Z,4.14
2022-11-15T05:49:53.078Z,4.23
2022-11-15T05:52:58.623Z,4.33
2022-11-15T05:56:04.213Z,4.43
2022-11-15T05:59:09.263Z,4.50
2022-11-15T06:02:11.267Z,4.45
2022-11-15T06:05:13.484Z,4.47
2022-11-15T06:08:15.380Z,4.46
2022-11-15T06:11:17.360Z,4.49
2022-11-15T06:14:21.447Z,4.45
2022-11-15T06:17:23.366Z,4.45
2022-11-15T06:20:25.596Z,4.48
2022-11-15T06:23:28.023Z,4.59
2022-11-15T06:26:30.372Z,4.67
2022-11-15T06:29:33.699Z,4.66
2022-11-15T06:32:35.667Z,4.55
2022-11-15T06:35:37.781Z,4.56
2022-11-15T06:38:39.780Z,4.59
2022-11-15T06:41:41.802Z,4.47
2022-11-15T06:44:45.184Z,4.47
2022-11-15T06:47:47.925Z,4.52
2022-11-15T06:50:52.044Z,4.48
2022-11-15T06:53:54.033Z,4.59
2022-11-15T06:56:55.892Z,4.70
2022-11-15T06:59:59.216Z,4.63
2022-11-15T07:03:01.132Z,4.65
2022-11-15T07:06:07.526Z,4.59
2022-11-15T07:09:09.679Z,4.58
2022-11-15T07:12:11.776Z,4.65
2022-11-15T07:15:15.422Z,4.65
2022-11-15T07:18:17.440Z,4.76
2022-11-15T07:21:22.363Z,4.74
2022-11-15T07:24:28.446Z,4.75
2022-11-15T07:27:30.539Z,4.82
2022-11-15T07:30:34.035Z,4.82
2022-11-15T07:33:36.274Z,4.88
2022-11-15T07:36:38.192Z,4.92
2022-11-15T07:39:40.144Z,5.01
2022-11-15T07:42:42.430Z,5.05
2022-11-15T07:45:46.767Z,5.10
2022-11-15T07:48:48.748Z,5.11
2022-11-15T07:51:50.680Z,5.14
2022-11-15T07:54:52.669Z,5.22
2022-11-15T07:58:00.658Z,5.29
2022-11-15T08:01:06.590Z,5.37
2022-11-15T08:04:08.567Z,5.48
2022-11-15T08:07:10.665Z,5.50
2022-11-15T08:10:12.617Z,5.53
2022-11-15T08:13:14.856Z,5.55
2022-11-15T08:16:18.243Z,5.65
2022-11-15T08:19:20.153Z,5.68
2022-11-15T08:22:22.175Z,5.74
2022-11-15T08:25:24.551Z,5.78
2022-11-15T08:28:26.543Z,5.84
2022-11-15T08:31:29.852Z,5.89
2022-11-15T08:34:31.760Z,5.95
2022-11-15T08:37:33.700Z,6.01
2022-11-15T08:40:36.363Z,6.05
2022-11-15T08:43:38.429Z,6.09
2022-11-15T08:46:41.870Z,6.21
2022-11-15T08:49:43.812Z,6.22
2022-11-15T08:52:45.909Z,6.27
2022-11-15T08:55:47.902Z,6.29
2022-11-15T08:58:49.875Z,6.38
2022-11-15T09:01:53.361Z,6.43
2022-11-15T09:04:55.383Z,6.43
2022-11-15T09:07:57.366Z,6.49
2022-11-15T09:10:59.418Z,6.50
2022-11-15T09:14:01.529Z,6.62
2022-11-15T09:17:08.103Z,6.71
2022-11-15T09:20:10.845Z,6.84
2022-11-15T09:23:12.767Z,6.90
2022-11-15T09:26:14.700Z,6.97
2022-11-15T09:29:16.740Z,6.94
2022-11-15T09:32:20.062Z,6.98
2022-11-15T09:35:22.052Z,7.10
2022-11-15T09:38:23.989Z,7.07
2022-11-15T09:41:49.716Z,7.17
2022-11-15T09:45:03.939Z,7.18
2022-11-15T09:48:46.726Z,7.31
2022-11-15T09:51:50.260Z,7.40
2022-11-15T09:54:55.097Z,7.45
2022-11-15T09:58:04.301Z,7.45
2022-11-15T10:01:14.770Z,7.38
2022-11-15T10:04:18.546Z,7.42
2022-11-15T10:07:26.894Z,7.43
2022-11-15T10:10:37.541Z,7.52
2022-11-15T10:13:44.896Z,7.48
2022-11-15T10:17:20.365Z,7.60
2022-11-15T10:20:26.165Z,7.60
2022-11-15T10:23:29.116Z,7.67
2022-11-15T10:26:31.049Z,7.68
2022-11-15T10:29:33.616Z,7.75
2022-11-15T10:32:37.236Z,7.83
2022-11-15T10:35:40.866Z,7.90
2022-11-15T10:38:54.024Z,8.00
2022-11-15T10:41:56.394Z,8.08
2022-11-15T10:44:58.802Z,8.00
2022-11-15T10:48:24.213Z,7.95
2022-11-15T10:51:30.219Z,7.97
2022-11-15T10:54:37.313Z,7.92
2022-11-15T10:57:41.105Z,7.93
2022-11-15T11:00:42.992Z,8.10
2022-11-15T11:03:46.373Z,8.14
2022-11-15T11:06:51.572Z,8.08
2022-11-15T11:09:59.856Z,8.14
2022-11-15T11:13:14.352Z,8.13
2022-11-15T11:16:43.589Z,8.14
2022-11-15T11:19:55.455Z,8.24
2022-11-15T11:23:24.726Z,8.17
2022-11-15T11:26:40.093Z,8.23
2022-11-15T11:29:54.548Z,8.27
2022-11-15T11:33:06.605Z,8.39
2022-11-15T11:36:21.908Z,8.33
2022-11-15T11:39:41.467Z,8.32
2022-11-15T11:42:53.533Z,8.33
2022-11-15T11:46:10.296Z,8.36
2022-11-15T11:49:18.238Z,8.32
2022-11-15T11:52:25.709Z,8.35
2022-11-15T11:55:33.728Z,8.44
2022-11-15T11:58:39.701Z,8.63
2022-11-15T12:01:44.341Z,8.64
2022-11-15T12:04:51.216Z,8.57
2022-11-15T12:07:55.870Z,8.63
2022-11-15T12:11:07.922Z,8.58
2022-11-15T12:14:17.422Z,8.61
2022-11-15T12:17:24.723Z,8.53
2022-11-15T12:20:30.250Z,8.59
2022-11-15T12:23:39.519Z,8.50
2022-11-15T12:26:49.778Z,8.63
2022-11-15T12:29:55.576Z,8.72
2022-11-15T12:33:00.507Z,8.72
2022-11-15T12:36:04.788Z,8.67
2022-11-15T12:39:07.942Z,8.58
2022-11-15T12:42:41.124Z,8.57
2022-11-15T12:45:44.970Z,8.60
2022-11-15T12:48:58.426Z,8.57
2022-11-15T12:52:09.684Z,8.53
2022-11-15T12:55:32.561Z,8.64
2022-11-15T12:58:44.917Z,8.62
2022-11-15T13:02:01.529Z,8.68
2022-11-15T13:06:07.245Z,8.55
2022-11-15T13:09:57.706Z,8.38
2022-11-15T13:13:00.919Z,8.48
2022-11-15T13:16:07.884Z,8.35
2022-11-15T13:19:11.717Z,8.37
2022-11-15T13:22:14.464Z,8.47
2022-11-15T13:25:20.609Z,8.42
2022-11-15T13:28:29.901Z,8.60
2022-11-15T13:31:41.497Z,8.56
2022-11-15T13:34:51.417Z,8.65
2022-11-15T13:37:55.907Z,8.60
2022-11-15T13:40:59.388Z,8.49
2022-11-15T13:44:03.057Z,8.48
2022-11-15T13:47:08.059Z,8.44
2022-11-15T13:50:12.582Z,8.25
2022-11-15T13:53:15.046Z,8.37
2022-11-15T13:56:18.306Z,8.38
2022-11-15T13:59:25.833Z,8.35
2022-11-15T14:02:32.389Z,8.31
2022-11-15T14:05:34.518Z,8.34
2022-11-15T14:08:36.700Z,8.46
2022-11-15T14:11:38.952Z,8.41
2022-11-15T14:14:46.647Z,8.41
2022-11-15T14:17:50.491Z,8.30
2022-11-15T14:21:06.906Z,8.20
2022-11-15T14:24:15.346Z,8.20
2022-11-15T14:27:23.552Z,8.12
2022-11-15T14:30:25.547Z,8.06
2022-11-15T14:33:31.640Z,8.03
2022-11-15T14:36:33.670Z,8.04
2022-11-15T14:39:35.647Z,8.06
2022-11-15T14:42:37.688Z,8.08
2022-11-15T14:45:41.142Z,8.12
2022-11-15T14:48:48.486Z,8.09
2022-11-15T14:51:54.146Z,8.10
2022-11-15T14:54:57.732Z,8.07
2022-11-15T14:58:08.051Z,8.03
2022-11-15T15:01:16.659Z,7.90
2022-11-15T15:04:23.850Z,7.92
2022-11-15T15:07:27.979Z,7.93
2022-11-15T15:10:42.436Z,7.95
2022-11-15T15:13:47.530Z,7.95
2022-11-15T15:16:50.852Z,7.91
2022-11-15T15:19:54.676Z,7.89
2022-11-15T15:22:56.844Z,7.91
2022-11-15T15:25:58.919Z,7.79
2022-11-15T15:29:01.089Z,7.69
2022-11-15T15:32:03.408Z,7.53
2022-11-15T15:35:07.383Z,7.49
2022-11-15T15:38:11.810Z,7.50
2022-11-15T15:41:15.389Z,7.50
2022-11-15T15:44:17.372Z,7.40
2022-11-15T15:47:20.884Z,7.45
2022-11-15T15:50:26.640Z,7.27
2022-11-15T15:53:29.683Z,7.31
2022-11-15T15:56:31.720Z,7.36
2022-11-15T15:59:34.076Z,7.34
2022-11-15T16:02:40.291Z,7.28
2022-11-15T16:05:46.161Z,7.31
2022-11-15T16:09:13.447Z,7.27
2022-11-15T16:12:10.217Z,7.28
2022-11-15T16:15:12.359Z,7.25
2022-11-15T16:18:18.310Z,7.28
2022-11-15T16:21:21.975Z,7.16
2022-11-15T16:24:24.527Z,6.99
2022-11-15T16:27:26.684Z,6.93
2022-11-15T16:30:29.342Z,6.80
2022-11-15T16:33:31.933Z,6.79
2022-11-15T16:36:36.417Z,6.82
2022-11-15T16:39:38.508Z,6.76
2022-11-15T16:42:40.648Z,6.83
2022-11-15T16:45:43.101Z,6.72
2022-11-15T16:48:45.693Z,6.69
2022-11-15T16:51:50.864Z,6.66
2022-11-15T16:54:52.936Z,6.47
2022-11-15T16:57:55.707Z,6.49
2022-11-15T17:00:57.725Z,6.44
2022-11-15T17:04:00.392Z,6.48
2022-11-15T17:07:04.213Z,6.53
2022-11-15T17:10:08.159Z,6.35
2022-11-15T17:13:12.905Z,6.33
2022-11-15T17:16:18.068Z,6.36
2022-11-15T17:19:22.325Z,6.38
2022-11-15T17:22:25.894Z,6.23
2022-11-15T17:25:27.931Z,6.26
2022-11-15T17:28:33.192Z,6.31
2022-11-15T17:31:36.087Z,6.34
2022-11-15T17:34:38.185Z,6.39
2022-11-15T17:37:41.764Z,6.36
2022-11-15T17:40:44.480Z,6.41
2022-11-15T17:43:47.093Z,6.45
2022-11-15T17:46:49.084Z,6.41
2022-11-15T17:49:52.932Z,6.34
2022-11-15T17:52:58.725Z,6.41
2022-11-15T17:56:02.180Z,6.29
2022-11-15T17:59:12.920Z,6.24
2022-11-15T18:02:18.318Z,6.28
2022-11-15T18:05:21.106Z,6.34
2022-11-15T18:08:26.325Z,6.42
2022-11-15T18:11:30.413Z,6.30
2022-11-15T18:14:33.246Z,6.21
2022-11-15T18:17:35.677Z,6.23
2022-11-15T18:20:38.398Z,6.22
2022-11-15T18:23:43.142Z,6.35
2022-11-15T18:26:46.115Z,6.36
2022-11-15T18:29:48.576Z,6.41
2022-11-15T18:32:51.036Z,6.44
2022-11-15T18:36:00.254Z,6.33
2022-11-15T18:39:05.153Z,6.36
2022-11-15T18:42:07.783Z,6.32
2022-11-15T18:45:11.354Z,6.26
2022-11-15T18:48:13.574Z,6.31
2022-11-15T18:51:17.578Z,6.40
2022-11-15T18:54:21.607Z,6.41
2022-11-15T18:57:25.514Z,6.33
2022-11-15T19:00:27.932Z,6.23
2022-11-15T19:03:35.002Z,6.22
2022-11-15T19:06:39.884Z,6.29
2022-11-15T19:09:43.909Z,6.30
2022-11-15T19:12:46.921Z,6.28
2022-11-15T19:15:48.903Z,6.25
2022-11-15T19:18:55.135Z,6.10
2022-11-15T19:21:58.974Z,6.19
2022-11-15T19:25:03.642Z,6.17
2022-11-15T19:28:05.996Z,6.19
2022-11-15T19:31:14.541Z,6.17
2022-11-15T19:34:21.849Z,6.23
2022-11-15T19:37:24.302Z,6.01
2022-11-15T19:40:28.452Z,6.09
2022-11-15T19:43:31.726Z,6.13
2022-11-15T19:46:35.310Z,6.10
2022-11-15T19:49:37.996Z,6.11
2022-11-15T19:52:41.201Z,6.11
2022-11-15T19:55:54.395Z,6.00
2022-11-15T19:58:57.690Z,6.04
2022-11-15T20:02:00.426Z,5.99
2022-11-15T20:05:02.689Z,5.95
2022-11-15T20:08:06.227Z,5.94
2022-11-15T20:11:11.565Z,5.83
2022-11-15T20:14:15.262Z,5.78
2022-11-15T20:17:18.179Z,5.66
2022-11-15T20:20:20.928Z,5.74
2022-11-15T20:23:24.175Z,5.76
2022-11-15T20:26:28.105Z,5.78
2022-11-15T20:29:34.075Z,5.82
2022-11-15T20:32:36.607Z,5.73
2022-11-15T20:35:39.000Z,5.67
2022-11-15T20:38:42.076Z,5.64
2022-11-15T20:41:46.969Z,5.69
2022-11-15T20:44:49.367Z,5.80
2022-11-15T20:47:55.062Z,5.67
2022-11-15T20:51:05.407Z,5.71
2022-11-15T20:54:07.478Z,5.74
2022-11-15T20:57:11.781Z,5.76
2022-11-15T21:00:14.711Z,5.75
2022-11-15T21:03:16.755Z,5.75
2022-11-15T21:06:18.809Z,5.81
2022-11-15T21:09:21.290Z,5.77
2022-11-15T21:12:24.729Z,5.79
2022-11-15T21:15:29.326Z,5.77
2022-11-15T21:18:32.632Z,5.84
2022-11-15T21:21:36.009Z,5.85
2022-11-15T21:24:38.289Z,5.82
2022-11-15T21:27:41.818Z,5.77
2022-11-15T21:30:52.449Z,5.76
2022-11-15T21:33:54.473Z,5.73
2022-11-15T21:36:56.409Z,5.59
2022-11-15T21:39:58.393Z,5.75
2022-11-15T21:43:01.754Z,5.80
2022-11-15T21:46:05.853Z,5.79
2022-11-15T21:49:08.310Z,5.81
2022-11-15T21:52:10.301Z,5.77
2022-11-15T21:55:12.292Z,5.74
2022-11-15T21:58:15.648Z,5.73
2022-11-15T22:01:17.883Z,5.69
2022-11-15T22:04:19.972Z,5.70
2022-11-15T22:07:22.013Z,5.69
2022-11-15T22:10:24.100Z,5.65
2022-11-15T22:13:27.628Z,5.69
2022-11-15T22:16:29.670Z,5.63
2022-11-15T22:19:31.628Z,5.68
2022-11-15T22:22:33.489Z,5.49
2022-11-15T22:25:35.510Z,5.46
2022-11-15T22:28:39.014Z,5.51
2022-11-15T22:31:40.942Z,5.53
2022-11-15T22:34:42.908Z,5.60
2022-11-15T22:37:44.908Z,5.53
2022-11-15T22:40:47.370Z,5.51
2022-11-15T22:43:50.690Z,5.51
2022-11-15T22:46:52.649Z,5.54
2022-11-15T22:49:54.637Z,5.55
2022-11-15T22:52:57.800Z,5.49
2022-11-15T22:56:01.499Z,5.44
2022-11-15T22:59:04.870Z,5.40
2022-11-15T23:02:06.827Z,5.45
2022-11-15T23:05:09.012Z,5.49
2022-11-15T23:08:11.317Z,5.47
2022-11-15T23:11:13.630Z,5.53
2022-11-15T23:14:17.009Z,5.53
2022-11-15T23:17:19.025Z,5.42
2022-11-15T23:20:41.909Z,5.41
2022-11-15T23:23:43.162Z,5.42
2022-11-15T23:26:47.206Z,5.39
2022-11-15T23:29:50.727Z,5.26
2022-11-15T23:32:52.732Z,5.38
2022-11-15T23:35:55.401Z,5.43
2022-11-15T23:38:57.626Z,5.46
2022-11-15T23:42:02.081Z,5.40
2022-11-15T23:45:10.037Z,5.50
2022-11-15T23:48:12.227Z,5.51
2022-11-15T23:51:14.283Z,5.41
2022-11-15T23:54:16.227Z,5.45
2022-11-15T23:57:18.176Z,5.49
